Latest Weather Observations for Townsville

IDQ60801

Issued at 7:35 pm EST Wednesday 23 July 2014 (issued every 30 minutes, with the page automatically refreshed every 10 minutes)

About weather observations | Map of weather stations | Latest weather observations for QLD | Other Formats
Station Details ID: 032040 Name: TOWNSVILLE AERO Lat: -19.25 Lon: 146.77 Height: 4.34 m
Data from the previous 72 hours. | See also: Recent months at Townsville
Date/Time
EST
Temp
°C
App
Temp
°C
Dew
Point
Rel
Hum
%
Delta-T
°C
Wind Press
QNH
hPa
Press
MSL
hPa
Rain
since 9 am
mm
Dir
 
Spd
km/h
Gust
km/h
Spd
kts
Gust
kts
23/07:30pm 19.3 19.8 15.6 79 2.2 E 7 9 4 5 1017.9 - 0.0
23/07:00pm 19.4 19.4 15.1 76 2.5 E 9 13 5 7 1017.6 - 0.0
23/06:30pm 19.8 19.4 15.2 75 2.7 ENE 11 17 6 9 1017.5 - 0.0
23/06:00pm 20.3 18.6 14.8 70 3.2 ENE 17 22 9 12 1017.2 1017.2 0.0
23/05:30pm 21.1 19.1 15.4 70 3.4 ENE 20 26 11 14 1016.8 - 0.0
23/05:00pm 21.7 18.4 15.1 66 3.9 ENE 26 32 14 17 1016.5 - 0.0
23/04:30pm 22.1 18.3 14.6 62 4.4 ENE 28 35 15 19 1016.2 - 0.0
23/04:00pm 22.8 18.5 14.5 59 4.9 ENE 30 35 16 19 1016.0 - 0.0
23/03:30pm 22.9 18.1 14.0 57 5.2 ENE 32 39 17 21 1015.8 - 0.0
23/03:00pm 23.2 18.1 13.1 53 5.8 ENE 32 43 17 23 1015.6 1015.6 0.0
23/02:30pm 24.1 19.7 12.8 49 6.5 ENE 28 35 15 19 1015.6 - 0.0
23/02:00pm 24.1 19.3 11.7 45 7.0 ENE 28 33 15 18 1015.7 - 0.0
23/01:30pm 24.0 19.4 11.1 44 7.2 NE 26 32 14 17 1016.1 - 0.0
23/01:00pm 24.3 20.0 10.9 43 7.5 ENE 24 32 13 17 1016.5 - 0.0
23/12:30pm 23.8 19.4 10.4 42 7.4 ENE 24 32 13 17 1017.0 - 0.0
23/12:00pm 23.7 20.2 12.3 48 6.5 ENE 22 30 12 16 1017.6 1017.6 0.0
23/11:30am 23.8 21.3 12.4 48 6.5 E 17 28 9 15 1018.0 - 0.0
23/11:00am 23.7 20.5 11.9 47 6.7 ESE 20 30 11 16 1018.5 - 0.0
23/10:30am 23.4 20.3 11.5 47 6.7 ESE 19 28 10 15 1018.9 - 0.0
23/10:00am 22.4 20.3 13.6 57 5.1 SE 17 24 9 13 1019.2 - 0.0
23/09:30am 21.9 20.8 14.2 61 4.5 SE 13 17 7 9 1019.4 - 0.0
23/09:00am 20.0 18.6 13.3 65 3.8 SSE 13 15 7 8 1019.3 1019.3 0.0
23/08:30am 18.1 17.4 13.3 73 2.7 S 9 13 5 7 1019.1 - 0.0
23/08:00am 16.2 15.8 13.0 81 1.8 S 7 9 4 5 1018.9 - 0.0
23/07:30am 14.1 13.4 12.1 88 1.1 S 7 9 4 5 1018.6 - 0.0
23/06:30am 11.1 11.3 10.5 96 0.3 CALM 0 0 0 0 1018.2 - 0.0
23/06:00am 10.9 10.9 9.9 93 0.5 NNW 0 0 0 0 1017.9 1017.9 0.0
23/05:30am 11.6 11.8 10.6 94 0.5 CALM 0 0 0 0 1017.7 - 0.0
23/05:00am 11.2 11.3 10.2 94 0.5 CALM 0 0 0 0 1017.4 - 0.0
23/04:30am 12.0 12.2 10.6 91 0.7 CALM 0 0 0 0 1017.6 - 0.0
23/04:00am 11.3 11.4 10.3 94 0.5 CALM 0 0 0 0 1017.6 - 0.0
23/03:30am 11.1 11.2 10.3 95 0.4 CALM 0 0 0 0 1017.4 - 0.0
23/03:00am 11.3 11.4 10.3 94 0.5 CALM 0 0 0 0 1017.4 1017.4 0.0
23/02:30am 11.6 11.9 10.8 95 0.4 CALM 0 0 0 0 1017.5 - 0.0
23/02:00am 12.0 12.4 11.2 95 0.4 CALM 0 0 0 0 1017.8 - 0.0
23/01:30am 12.7 13.3 11.8 94 0.5 CALM 0 0 0 0 1018.1 - 0.0
23/01:00am 13.0 13.6 11.9 93 0.6 CALM 0 0 0 0 1018.4 - 0.0
23/12:30am 12.9 13.2 12.2 95 0.4 NNW 2 7 1 4 1018.6 - 0.0
23/12:00am 13.3 14.0 12.2 93 0.6 NNW 0 4 0 2 1018.8 1018.8 0.0
 
Date/Time
EST
Temp
°C
App
Temp
°C
Dew
Point
Rel
Hum
%
Delta-T
°C
Wind Press
QNH
hPa
Press
MSL
hPa
Rain
since 9 am
mm
Dir
 
Spd
km/h
Gust
km/h
Spd
kts
Gust
kts
22/11:30pm 14.5 13.9 12.3 87 1.2 NNW 7 9 4 5 1018.7 - 0.0
22/11:00pm 13.9 14.7 12.4 91 0.8 CALM 0 0 0 0 1018.9 - 0.0
22/10:30pm 13.8 14.5 12.3 91 0.8 CALM 0 0 0 0 1019.0 - 0.0
22/10:00pm 15.5 16.4 13.0 85 1.4 CALM 0 0 0 0 1018.9 - 0.0
22/09:30pm 16.1 17.0 13.0 82 1.7 CALM 0 0 0 0 1018.9 - 0.0
22/09:00pm 17.0 18.0 13.3 79 2.1 CALM 0 0 0 0 1018.8 1018.8 0.0
22/08:30pm 16.6 17.6 13.2 80 1.9 CALM 0 0 0 0 1018.6 - 0.0
22/08:00pm 17.2 18.4 13.9 81 1.9 CALM 0 0 0 0 1018.4 - 0.0
22/07:30pm 17.2 18.5 14.2 82 1.7 CALM 0 0 0 0 1018.0 - 0.0
22/07:00pm 17.0 16.9 14.0 82 1.7 NNW 7 7 4 4 1017.5 - 0.0
22/06:30pm 17.7 17.5 13.5 76 2.4 NNW 7 7 4 4 1017.2 - 0.0
22/06:00pm 19.3 18.8 13.7 70 3.2 N 9 11 5 6 1016.9 1016.9 0.0
22/05:30pm 21.0 20.4 13.5 62 4.3 N 9 11 5 6 1016.7 - 0.0
22/05:00pm 22.3 20.9 13.5 57 5.1 NNW 13 15 7 8 1016.5 - 0.0
22/04:30pm 23.1 21.5 12.8 52 5.9 NNW 13 17 7 9 1016.4 - 0.0
22/04:00pm 23.1 21.4 12.4 51 6.1 NNE 13 19 7 10 1016.4 - 0.0
22/03:30pm 23.0 21.1 13.1 53 5.7 N 15 19 8 10 1016.4 - 0.0
22/03:00pm 24.2 22.0 12.1 46 6.9 N 15 22 8 12 1016.5 1016.5 0.0
22/02:30pm 24.1 20.2 9.4 39 8.0 NNE 20 26 11 14 1016.5 - 0.0
22/02:00pm 24.0 20.0 8.4 37 8.3 NE 19 26 10 14 1016.7 - 0.0
22/01:30pm 24.3 21.1 10.1 40 7.8 NE 17 24 9 13 1017.0 - 0.0
22/01:00pm 23.8 21.2 12.0 47 6.7 NE 17 26 9 14 1017.5 - 0.0
22/12:30pm 23.6 21.4 12.2 48 6.5 NE 15 22 8 12 1018.3 - 0.0
22/12:00pm 23.2 21.0 12.1 49 6.3 ENE 15 19 8 10 1018.9 1018.9 0.0
22/11:30am 23.2 21.1 12.5 51 6.1 NE 15 20 8 11 1019.5 - 0.0
22/11:00am 22.5 21.2 12.5 53 5.7 S 11 15 6 8 1019.9 - 0.0
22/10:30am 21.6 20.8 12.8 57 5.0 S 9 13 5 7 1020.2 - 0.0
22/10:00am 21.0 20.6 13.1 60 4.5 S 7 9 4 5 1020.5 - 0.0
22/09:30am 20.0 19.5 12.7 63 4.1 S 7 9 4 5 1020.6 - 0.0
22/09:00am 18.4 18.9 12.7 69 3.2 WNW 2 7 1 4 1020.7 1020.7 0.0
22/08:30am 16.1 16.8 12.1 77 2.2 CALM 0 0 0 0 1020.4 - 0.0
22/08:00am 13.5 14.0 11.6 88 1.0 CALM 0 0 0 0 1020.3 - 0.0
22/07:30am 11.6 11.8 10.4 92 0.6 CALM 0 0 0 0 1020.1 - 0.0
22/07:00am 10.1 10.0 9.3 95 0.4 CALM 0 0 0 0 1020.0 - 0.0
22/06:30am 10.1 10.0 9.5 96 0.3 CALM 0 0 0 0 1019.7 - 0.0
22/06:00am 10.3 10.2 9.5 95 0.4 CALM 0 4 0 2 1019.4 1019.4 0.0
22/05:30am 10.0 8.7 9.2 95 0.4 NW 6 7 3 4 1019.2 - 0.0
22/05:00am 10.1 8.7 9.5 96 0.3 WNW 7 7 4 4 1019.0 - 0.0
22/04:30am 10.1 10.0 9.3 95 0.4 CALM 0 0 0 0 1019.0 - 0.0
22/04:00am 10.4 10.3 9.6 95 0.4 CALM 0 0 0 0 1019.1 - 0.0
22/03:30am 10.5 10.5 9.7 95 0.4 CALM 0 0 0 0 1019.2 - 0.0
22/03:00am 10.7 10.6 9.5 92 0.6 CALM 0 0 0 0 1019.2 1019.2 0.0
22/02:30am 10.7 10.7 9.9 95 0.4 CALM 0 0 0 0 1019.3 - 0.0
22/02:00am 10.7 9.6 9.9 95 0.4 W 6 7 3 4 1019.5 - 0.0
22/01:30am 9.9 8.4 9.3 96 0.3 W 7 9 4 5 1019.8 - 0.0
22/01:00am 10.9 11.0 10.1 95 0.4 CALM 0 0 0 0 1019.9 - 0.0
22/12:30am 10.8 9.7 10.0 95 0.4 WSW 6 7 3 4 1020.0 - 0.0
22/12:00am 10.9 10.8 9.5 91 0.7 CALM 0 0 0 0 1020.1 1020.1 0.0
 
Date/Time
EST
Temp
°C
App
Temp
°C
Dew
Point
Rel
Hum
%
Delta-T
°C
Wind Press
QNH
hPa
Press
MSL
hPa
Rain
since 9 am
mm
Dir
 
Spd
km/h
Gust
km/h
Spd
kts
Gust
kts
21/11:30pm 12.6 11.0 10.1 85 1.3 S 9 9 5 5 1020.1 - 0.0
21/11:00pm 13.1 12.0 10.8 86 1.2 SE 7 7 4 4 1020.2 - 0.0
21/10:30pm 12.4 11.9 10.7 89 0.9 SE 4 9 2 5 1020.3 - 0.0
21/10:00pm 15.2 13.5 10.0 71 2.7 SE 9 11 5 6 1020.3 - 0.0
21/09:30pm 15.4 13.4 10.0 70 2.8 SE 11 13 6 7 1020.4 - 0.0
21/09:00pm 16.1 14.1 10.2 68 3.1 SE 11 13 6 7 1020.5 1020.5 0.0
21/08:30pm 16.2 14.1 11.0 71 2.8 SE 13 15 7 8 1020.3 - 0.0
21/08:00pm 16.5 15.6 11.3 71 2.8 SSE 7 11 4 6 1020.2 - 0.0
21/07:30pm 16.6 15.4 11.6 72 2.7 ENE 9 11 5 6 1019.9 - 0.0
21/07:00pm 17.1 15.4 11.2 68 3.2 ENE 11 13 6 7 1019.5 - 0.0
21/06:30pm 17.8 15.7 11.2 65 3.6 ENE 13 17 7 9 1019.0 - 0.0
21/06:00pm 18.7 16.2 11.0 61 4.2 ENE 15 17 8 9 1018.7 1018.7 0.0
21/05:30pm 20.1 16.9 9.8 51 5.5 ENE 17 20 9 11 1018.4 - 0.0
21/05:00pm 20.9 17.3 9.7 48 6.0 ENE 19 24 10 13 1018.2 - 0.0
21/04:30pm 21.3 17.4 9.5 47 6.3 ENE 20 26 11 14 1018.0 - 0.0
21/04:00pm 22.0 18.4 9.8 45 6.6 ENE 19 26 10 14 1017.9 - 0.0
21/03:30pm 21.8 17.7 10.2 47 6.3 ENE 22 26 12 14 1017.8 - 0.0
21/03:00pm 22.3 18.7 10.4 47 6.5 ENE 20 28 11 15 1017.8 1017.8 0.0
21/02:30pm 22.2 18.9 10.8 48 6.3 NE 19 26 10 14 1017.9 - 0.0
21/02:00pm 22.2 18.9 10.8 48 6.3 NE 19 26 10 14 1018.1 - 0.0
21/01:30pm 22.4 19.0 11.3 49 6.2 NE 20 26 11 14 1018.4 - 0.0
21/01:00pm 22.8 19.4 10.4 45 6.8 NE 19 26 10 14 1018.8 - 0.0
21/12:30pm 22.6 19.1 10.1 45 6.8 ENE 19 24 10 13 1019.3 - 0.0
21/12:00pm 22.9 19.9 9.4 42 7.3 ENE 15 22 8 12 1019.9 1019.9 0.0
21/11:30am 22.3 19.1 10.0 45 6.7 ENE 17 26 9 14 1020.4 - 0.0
21/11:00am 21.6 19.1 10.9 50 5.9 SE 15 22 8 12 1020.8 - 0.0
21/10:30am 21.7 19.9 12.1 54 5.4 SSE 13 17 7 9 1021.0 - 0.0
21/10:00am 19.4 18.3 11.8 61 4.2 SE 9 13 5 7 1021.4 - 0.0
21/09:30am 19.3 18.1 11.7 61 4.2 SE 9 13 5 7 1021.5 - 0.0
21/09:00am 17.5 16.2 11.4 67 3.3 S 9 11 5 6 1021.5 1021.5 0.0
21/08:30am 15.8 16.5 12.1 78 2.0 CALM 0 0 0 0 1021.2 - 0.0
21/08:00am 14.3 14.8 11.5 83 1.5 CALM 0 0 0 0 1020.9 - 0.0
21/07:30am 11.5 11.6 10.1 91 0.7 CALM 0 0 0 0 1020.7 - 0.0
21/07:00am 9.7 9.6 9.5 99 0.1 CALM 0 0 0 0 1020.3 - 0.0
21/06:30am 9.9 9.8 9.3 96 0.3 CALM 0 0 0 0 1020.1 - 0.0
21/06:00am 9.7 9.6 9.3 97 0.2 CALM 0 0 0 0 1019.9 1019.9 0.0
21/05:30am 9.8 9.7 9.4 97 0.2 CALM 0 0 0 0 1019.6 - 0.0
21/05:00am 10.2 10.1 9.6 96 0.3 CALM 0 0 0 0 1019.3 - 0.0
21/04:30am 10.6 10.6 9.8 95 0.4 CALM 0 0 0 0 1019.3 - 0.0
21/04:00am 10.5 10.4 9.3 92 0.6 CALM 0 0 0 0 1019.4 - 0.0
21/03:30am 10.2 10.1 9.4 95 0.4 CALM 0 0 0 0 1019.4 - 0.0
21/03:00am 10.1 9.9 9.1 93 0.5 CALM 0 0 0 0 1019.3 1019.3 0.0
21/02:30am 10.6 10.5 9.4 92 0.6 CALM 0 0 0 0 1019.4 - 0.0
21/02:00am 10.2 10.0 9.2 93 0.5 CALM 0 0 0 0 1019.7 - 0.0
21/01:30am 10.4 10.2 9.2 92 0.6 CALM 0 0 0 0 1020.1 - 0.0
21/01:00am 11.3 11.3 9.9 91 0.7 CALM 0 0 0 0 1020.2 - 0.0
21/12:30am 11.6 11.7 10.2 91 0.7 CALM 0 0 0 0 1020.5 - 0.0
21/12:00am 11.3 11.3 9.7 90 0.8 CALM 0 0 0 0 1020.5 1020.5 0.0
 
Date/Time
EST
Temp
°C
App
Temp
°C
Dew
Point
Rel
Hum
%
Delta-T
°C
Wind Press
QNH
hPa
Press
MSL
hPa
Rain
since 9 am
mm
Dir
 
Spd
km/h
Gust
km/h
Spd
kts
Gust
kts
20/11:30pm 12.1 12.3 10.4 89 0.9 CALM 0 0 0 0 1020.6 - 0.0
20/11:00pm 12.1 12.2 10.2 88 1.0 CALM 0 0 0 0 1020.8 - 0.0
20/10:30pm 13.0 12.7 10.1 82 1.5 SSE 2 6 1 3 1020.7 - 0.0
20/10:00pm 14.3 13.2 10.7 79 1.9 ESE 7 9 4 5 1020.8 - 0.0
20/09:30pm 15.6 16.0 11.3 75 2.3 CALM 0 0 0 0 1020.8 - 0.0
20/09:00pm 16.0 16.4 11.1 72 2.6 CALM 0 0 0 0 1020.7 1020.7 0.0
20/08:30pm 16.4 16.8 11.2 71 2.8 CALM 0 0 0 0 1020.6 - 0.0
20/08:00pm 16.2 16.7 11.6 74 2.5 CALM 0 0 0 0 1020.4 - 0.0

Other Formats:

Comma delimited format used in spreadsheet applications
http://www.bom.gov.au/fwo/IDQ60801/IDQ60801.94294.axf

JavaScript Object Notation format (JSON) in row-major order
http://www.bom.gov.au/fwo/IDQ60801/IDQ60801.94294.json